createdAt,value
2018-11-05T00:00:38.585Z,13.20
2018-11-05T00:03:07.193Z,13.20
2018-11-05T00:05:35.397Z,13.20
2018-11-05T00:08:03.748Z,13.00
2018-11-05T00:10:31.661Z,13.10
2018-11-05T00:12:59.607Z,13.00
2018-11-05T00:15:27.547Z,12.90
2018-11-05T00:17:56.305Z,12.80
2018-11-05T00:20:25.534Z,12.80
2018-11-05T00:22:53.440Z,12.80
2018-11-05T00:25:21.337Z,12.90
2018-11-05T00:27:49.237Z,12.70
2018-11-05T00:30:17.234Z,12.80
2018-11-05T00:32:45.111Z,12.70
2018-11-05T00:35:13.584Z,12.70
2018-11-05T00:37:41.551Z,12.70
2018-11-05T00:40:14.302Z,12.70
2018-11-05T00:42:42.785Z,12.70
2018-11-05T00:45:11.522Z,12.80
2018-11-05T00:47:40.523Z,12.80
2018-11-05T00:50:10.812Z,12.60
2018-11-05T00:52:39.019Z,12.60
2018-11-05T00:55:08.013Z,12.70
2018-11-05T00:57:36.179Z,12.50
2018-11-05T01:00:06.980Z,12.60
2018-11-05T01:02:34.926Z,12.50
2018-11-05T01:05:02.806Z,12.60
2018-11-05T01:07:30.681Z,12.50
2018-11-05T01:09:58.614Z,12.40
2018-11-05T01:12:26.528Z,12.50
2018-11-05T01:14:54.455Z,12.50
2018-11-05T01:17:22.934Z,12.60
2018-11-05T01:19:50.830Z,12.70
2018-11-05T01:22:18.695Z,12.70
2018-11-05T01:24:46.676Z,12.70
2018-11-05T01:27:14.571Z,12.80
2018-11-05T01:29:42.437Z,12.90
2018-11-05T01:32:10.501Z,12.80
2018-11-05T01:34:38.377Z,12.90
2018-11-05T01:37:06.542Z,12.80
2018-11-05T01:39:35.346Z,12.60
2018-11-05T01:42:03.267Z,12.70
2018-11-05T01:44:31.204Z,12.70
2018-11-05T01:46:59.117Z,12.90
2018-11-05T01:49:27.092Z,12.80
2018-11-05T01:51:55.013Z,12.70
2018-11-05T01:54:22.924Z,12.90
2018-11-05T01:56:50.842Z,13.00
2018-11-05T01:59:19.012Z,12.90
2018-11-05T02:01:46.914Z,12.70
2018-11-05T02:04:14.793Z,12.80
2018-11-05T02:06:42.688Z,12.90
2018-11-05T02:09:10.547Z,13.00
2018-11-05T02:11:38.729Z,12.90
2018-11-05T02:14:06.915Z,12.90
2018-11-05T02:16:35.556Z,12.90
2018-11-05T02:19:03.532Z,12.90
2018-11-05T02:21:31.743Z,12.90
2018-11-05T02:23:59.645Z,12.90
2018-11-05T02:26:28.388Z,12.70
2018-11-05T02:28:56.251Z,12.50
2018-11-05T02:31:24.144Z,12.40
2018-11-05T02:33:52.048Z,12.20
2018-11-05T02:36:20.273Z,12.30
2018-11-05T02:38:48.174Z,12.60
2018-11-05T02:41:16.130Z,12.60
2018-11-05T02:43:43.975Z,12.70
2018-11-05T02:46:11.875Z,12.90
2018-11-05T02:48:39.812Z,12.80
2018-11-05T02:51:07.736Z,12.90
2018-11-05T02:53:35.705Z,12.80
2018-11-05T02:56:03.606Z,12.40
2018-11-05T02:58:31.549Z,12.50
2018-11-05T03:01:00.457Z,12.50
2018-11-05T03:03:28.346Z,12.20
2018-11-05T03:05:56.247Z,12.10
2018-11-05T03:08:24.951Z,12.10
2018-11-05T03:10:52.864Z,12.20
2018-11-05T03:13:20.808Z,12.30
2018-11-05T03:15:49.330Z,12.40
2018-11-05T03:18:17.182Z,12.30
2018-11-05T03:20:45.079Z,12.20
2018-11-05T03:23:12.976Z,12.30
2018-11-05T03:25:40.971Z,12.40
2018-11-05T03:28:08.880Z,12.10
2018-11-05T03:30:36.826Z,12.10
2018-11-05T03:33:05.238Z,12.20
2018-11-05T03:35:33.811Z,11.90
2018-11-05T03:38:02.403Z,11.80
2018-11-05T03:40:30.387Z,11.50
2018-11-05T03:42:58.276Z,11.40
2018-11-05T03:45:26.147Z,11.50
2018-11-05T03:47:55.591Z,11.80
2018-11-05T03:50:23.725Z,11.50
2018-11-05T03:52:51.613Z,11.40
2018-11-05T03:55:19.494Z,11.50
2018-11-05T03:57:48.052Z,11.50
2018-11-05T04:00:17.060Z,11.60
2018-11-05T04:02:44.950Z,11.40
2018-11-05T04:05:12.907Z,11.60
2018-11-05T04:07:41.190Z,11.80
2018-11-05T04:10:10.675Z,11.90
2018-11-05T04:12:38.887Z,11.90
2018-11-05T04:15:07.379Z,11.80
2018-11-05T04:17:35.286Z,11.80
2018-11-05T04:20:03.674Z,11.90
2018-11-05T04:22:31.533Z,11.80
2018-11-05T04:24:59.407Z,11.90
2018-11-05T04:27:27.335Z,11.90
2018-11-05T04:29:55.249Z,12.00
2018-11-05T04:32:24.181Z,12.00
2018-11-05T04:34:52.103Z,12.00
2018-11-05T04:37:20.277Z,12.10
2018-11-05T04:39:48.191Z,12.10
2018-11-05T04:42:16.438Z,12.20
2018-11-05T04:44:44.411Z,12.20
2018-11-05T04:47:12.345Z,12.20
2018-11-05T04:49:40.247Z,11.80
2018-11-05T04:52:08.410Z,11.90
2018-11-05T04:54:36.317Z,12.00
2018-11-05T04:57:04.228Z,12.00
2018-11-05T04:59:32.937Z,12.20
2018-11-05T05:02:00.816Z,12.20
2018-11-05T05:04:28.818Z,12.10
2018-11-05T05:06:56.739Z,12.10
2018-11-05T05:09:24.623Z,12.20
2018-11-05T05:11:52.530Z,12.20
2018-11-05T05:14:20.438Z,12.20
2018-11-05T05:16:48.315Z,12.30
2018-11-05T05:19:16.224Z,12.30
2018-11-05T05:21:44.133Z,12.10
2018-11-05T05:24:12.141Z,12.10
2018-11-05T05:26:40.166Z,12.10
2018-11-05T05:29:08.512Z,12.30
2018-11-05T05:31:36.401Z,12.30
2018-11-05T05:34:04.740Z,12.30
2018-11-05T05:36:32.705Z,12.20
2018-11-05T05:39:00.592Z,12.20
2018-11-05T05:41:28.488Z,12.40
2018-11-05T05:43:56.685Z,12.30
2018-11-05T05:46:24.895Z,12.30
2018-11-05T05:48:53.344Z,12.30
2018-11-05T05:51:21.420Z,12.30
2018-11-05T05:53:49.326Z,12.20
2018-11-05T05:56:17.149Z,12.20
2018-11-05T05:58:44.985Z,12.30
2018-11-05T06:01:12.851Z,12.30
2018-11-05T06:03:40.762Z,12.10
2018-11-05T06:06:09.093Z,12.10
2018-11-05T06:08:36.961Z,12.00
2018-11-05T06:11:05.043Z,11.80
2018-11-05T06:13:33.118Z,11.90
2018-11-05T06:16:01.140Z,12.10
2018-11-05T06:18:29.035Z,12.20
2018-11-05T06:20:57.011Z,12.20
2018-11-05T06:23:24.968Z,12.20
2018-11-05T06:25:53.182Z,12.20
2018-11-05T06:28:21.141Z,12.20
2018-11-05T06:30:49.702Z,12.20
2018-11-05T06:33:17.800Z,12.10
2018-11-05T06:35:45.977Z,11.90
2018-11-05T06:38:13.899Z,11.90
2018-11-05T06:40:41.759Z,12.00
2018-11-05T06:43:09.638Z,12.10
2018-11-05T06:45:38.065Z,12.20
2018-11-05T06:48:05.989Z,12.20
2018-11-05T06:50:33.858Z,12.20
2018-11-05T06:53:02.480Z,12.30
2018-11-05T06:55:30.314Z,12.40
2018-11-05T06:57:59.017Z,12.40
2018-11-05T07:00:26.924Z,12.30
2018-11-05T07:02:54.828Z,12.30
2018-11-05T07:05:23.058Z,12.30
2018-11-05T07:07:50.961Z,11.80
2018-11-05T07:10:19.190Z,12.00
2018-11-05T07:12:47.145Z,12.20
2018-11-05T07:15:16.281Z,12.20
2018-11-05T07:17:45.166Z,12.50
2018-11-05T07:20:14.643Z,12.40
2018-11-05T07:22:43.766Z,12.40
2018-11-05T07:25:12.936Z,12.10
2018-11-05T07:27:41.273Z,12.10
2018-11-05T07:30:13.414Z,12.20
2018-11-05T07:32:41.643Z,12.40
2018-11-05T07:35:11.271Z,12.20
2018-11-05T07:37:39.219Z,12.40
2018-11-05T07:40:08.779Z,12.40
2018-11-05T07:42:36.908Z,11.90
2018-11-05T07:45:06.779Z,12.20
2018-11-05T07:47:36.282Z,12.40
2018-11-05T07:50:07.071Z,12.40
2018-11-05T07:52:36.930Z,12.60
2018-11-05T07:55:06.849Z,12.70
2018-11-05T07:57:36.519Z,12.70
2018-11-05T08:00:11.527Z,12.60
2018-11-05T08:02:39.528Z,12.70
2018-11-05T08:05:08.133Z,12.70
2018-11-05T08:07:36.125Z,12.40
2018-11-05T08:10:05.658Z,12.60
2018-11-05T08:12:34.196Z,12.80
2018-11-05T08:15:02.117Z,12.80
2018-11-05T08:17:30.066Z,12.40
2018-11-05T08:19:58.252Z,12.30
2018-11-05T08:22:26.445Z,12.30
2018-11-05T08:24:54.373Z,12.30
2018-11-05T08:27:23.935Z,12.40
2018-11-05T08:29:51.811Z,12.40
2018-11-05T08:32:20.573Z,12.50
2018-11-05T08:34:48.434Z,12.60
2018-11-05T08:37:16.351Z,12.50
2018-11-05T08:39:44.238Z,12.40
2018-11-05T08:42:12.171Z,12.60
2018-11-05T08:44:40.611Z,12.50
2018-11-05T08:47:08.590Z,12.70
2018-11-05T08:49:36.537Z,12.90
2018-11-05T08:52:04.510Z,12.90
2018-11-05T08:54:32.394Z,12.80
2018-11-05T08:57:00.302Z,12.70
2018-11-05T08:59:28.235Z,12.80
2018-11-05T09:01:58.029Z,12.80
2018-11-05T09:04:25.983Z,12.50
2018-11-05T09:06:53.971Z,12.50
2018-11-05T09:09:21.925Z,12.80
2018-11-05T09:11:49.935Z,12.70
2018-11-05T09:14:17.848Z,12.60
2018-11-05T09:16:45.766Z,12.70
2018-11-05T09:19:14.134Z,12.80
2018-11-05T09:21:42.099Z,12.90
2018-11-05T09:24:10.040Z,13.10
2018-11-05T09:26:38.001Z,12.80
2018-11-05T09:29:06.508Z,12.70
2018-11-05T09:31:34.416Z,12.60
2018-11-05T09:34:02.665Z,12.40
2018-11-05T09:36:30.531Z,12.40
2018-11-05T09:38:58.375Z,12.60
2018-11-05T09:41:26.293Z,12.40
2018-11-05T09:43:54.219Z,11.80
2018-11-05T09:46:22.166Z,12.00
2018-11-05T09:48:50.090Z,12.40
2018-11-05T09:51:17.992Z,12.50
2018-11-05T09:53:46.448Z,12.90
2018-11-05T09:56:14.496Z,12.90
2018-11-05T09:58:42.387Z,12.90
2018-11-05T10:01:10.282Z,12.80
2018-11-05T10:03:43.880Z,12.80
2018-11-05T10:06:11.707Z,12.50
2018-11-05T10:08:39.616Z,12.60
2018-11-05T10:11:07.554Z,12.90
2018-11-05T10:13:35.493Z,13.00
2018-11-05T10:16:03.394Z,12.80
2018-11-05T10:18:31.585Z,13.00
2018-11-05T10:20:59.950Z,13.10
2018-11-05T10:23:27.812Z,12.70
2018-11-05T10:25:55.670Z,12.70
2018-11-05T10:28:23.569Z,12.70
2018-11-05T10:30:51.567Z,12.70
2018-11-05T10:33:19.509Z,12.90
2018-11-05T10:35:55.406Z,12.90
2018-11-05T10:38:24.054Z,12.80
2018-11-05T10:40:52.018Z,13.00
2018-11-05T10:43:20.143Z,12.50
2018-11-05T10:45:48.098Z,12.70
2018-11-05T10:48:16.287Z,12.80
2018-11-05T10:50:44.242Z,13.00
2018-11-05T10:53:12.133Z,13.00
2018-11-05T10:55:40.058Z,13.00
2018-11-05T10:58:07.988Z,13.10
2018-11-05T11:01:41.075Z,13.20
2018-11-05T11:04:14.618Z,13.10
2018-11-05T11:06:42.530Z,12.70
2018-11-05T11:09:10.440Z,12.70
2018-11-05T11:11:38.348Z,12.50
2018-11-05T11:14:06.262Z,12.60
2018-11-05T11:16:34.410Z,12.50
2018-11-05T11:19:02.276Z,12.60
2018-11-05T11:21:30.935Z,12.50
2018-11-05T11:23:58.908Z,12.70
2018-11-05T11:26:27.607Z,12.90
2018-11-05T11:28:56.333Z,13.00
2018-11-05T11:31:24.582Z,12.80
2018-11-05T11:33:53.897Z,12.70
2018-11-05T11:36:22.194Z,12.80
2018-11-05T11:38:50.076Z,12.70
2018-11-05T11:41:18.044Z,12.80
2018-11-05T11:43:46.576Z,13.00
2018-11-05T11:46:14.466Z,13.00
2018-11-05T11:48:42.360Z,12.90
2018-11-05T11:51:11.626Z,13.20
2018-11-05T11:53:39.520Z,12.80
2018-11-05T11:56:08.457Z,12.70
2018-11-05T11:58:37.128Z,12.60
2018-11-05T12:01:05.123Z,12.70
2018-11-05T12:03:33.984Z,12.50
2018-11-05T12:06:01.903Z,12.40
2018-11-05T12:08:31.301Z,12.60
2018-11-05T12:10:59.225Z,12.70
2018-11-05T12:13:27.133Z,12.80
2018-11-05T12:15:55.099Z,12.80
2018-11-05T12:18:23.507Z,12.50
2018-11-05T12:20:51.575Z,12.20
2018-11-05T12:23:20.495Z,12.30
2018-11-05T12:25:48.438Z,12.40
2018-11-05T12:28:16.338Z,12.50
2018-11-05T12:30:44.250Z,12.50
2018-11-05T12:33:12.149Z,12.80
2018-11-05T12:35:40.866Z,12.80
2018-11-05T12:38:08.805Z,12.60
2018-11-05T12:40:36.665Z,12.50
2018-11-05T12:43:05.217Z,12.50
2018-11-05T12:45:33.217Z,12.80
2018-11-05T12:48:01.359Z,13.20
2018-11-05T12:50:29.490Z,13.20
2018-11-05T12:52:57.425Z,13.00
2018-11-05T12:55:25.994Z,13.00
2018-11-05T12:57:54.234Z,12.90
2018-11-05T13:00:23.446Z,12.60
2018-11-05T13:02:52.239Z,12.90
2018-11-05T13:05:20.453Z,12.80
2018-11-05T13:07:49.694Z,12.90
2018-11-05T13:10:17.644Z,12.80
2018-11-05T13:12:45.720Z,12.50
2018-11-05T13:15:13.746Z,12.00
2018-11-05T13:17:41.692Z,11.60
2018-11-05T13:20:13.158Z,11.70
2018-11-05T13:22:42.248Z,11.70
2018-11-05T13:25:10.416Z,11.50
2018-11-05T13:27:39.708Z,11.70
2018-11-05T13:30:08.922Z,11.70
2018-11-05T13:32:37.096Z,11.50
2018-11-05T13:35:06.332Z,11.40
2018-11-05T13:37:35.785Z,11.30
2018-11-05T13:40:03.713Z,11.70
2018-11-05T13:42:32.601Z,11.90
2018-11-05T13:45:00.694Z,12.20
2018-11-05T13:47:29.147Z,12.00
2018-11-05T13:49:56.748Z,11.70
2018-11-05T13:52:24.493Z,11.50
2018-11-05T13:54:52.520Z,11.70
2018-11-05T13:57:21.093Z,11.60
2018-11-05T13:59:49.001Z,11.30
2018-11-05T14:02:16.960Z,11.10
2018-11-05T14:04:44.905Z,11.20
2018-11-05T14:07:12.816Z,11.10
2018-11-05T14:09:40.721Z,11.10
2018-11-05T14:12:08.597Z,11.20
2018-11-05T14:14:36.508Z,11.40
2018-11-05T14:17:04.876Z,11.50
2018-11-05T14:19:32.781Z,11.30
2018-11-05T14:22:00.837Z,11.50
2018-11-05T14:24:28.713Z,11.60
2018-11-05T14:26:57.278Z,12.00
2018-11-05T14:29:26.012Z,12.00
2018-11-05T14:31:53.486Z,11.90
2018-11-05T14:34:23.005Z,12.00
2018-11-05T14:36:55.001Z,12.30
2018-11-05T14:39:23.195Z,11.90
2018-11-05T14:41:52.084Z,11.80
2018-11-05T14:44:20.304Z,12.00
2018-11-05T14:46:48.917Z,12.00
2018-11-05T14:49:17.338Z,12.10
2018-11-05T14:51:45.762Z,12.10
2018-11-05T14:54:14.400Z,12.00
2018-11-05T14:56:42.889Z,12.10
2018-11-05T14:59:10.983Z,12.00
2018-11-05T15:01:40.330Z,12.20
2018-11-05T15:04:09.935Z,12.20
2018-11-05T15:06:39.679Z,12.10
2018-11-05T15:09:10.204Z,12.40
2018-11-05T15:11:40.540Z,12.20
2018-11-05T15:14:10.228Z,12.20
2018-11-05T15:16:38.501Z,12.30
2018-11-05T15:19:09.053Z,12.30
2018-11-05T15:21:37.429Z,12.40
2018-11-05T15:24:07.383Z,12.30
2018-11-05T15:26:36.710Z,12.40
2018-11-05T15:29:05.504Z,12.50
2018-11-05T15:31:36.928Z,12.50
2018-11-05T15:34:07.140Z,12.50
2018-11-05T15:36:35.579Z,12.50
2018-11-05T15:39:06.823Z,12.10
2018-11-05T15:41:37.241Z,11.70
2018-11-05T15:44:09.097Z,12.00
2018-11-05T15:46:38.523Z,12.20
2018-11-05T15:49:07.209Z,11.70
2018-11-05T15:51:36.313Z,11.60
2018-11-05T15:54:08.268Z,11.70
2018-11-05T15:56:39.717Z,11.60
2018-11-05T15:59:11.932Z,12.00
2018-11-05T16:01:43.413Z,12.10
2018-11-05T16:04:12.177Z,12.20
2018-11-05T16:06:43.368Z,12.30
2018-11-05T16:09:11.972Z,12.10
2018-11-05T16:11:41.184Z,12.20
2018-11-05T16:14:10.949Z,12.30
2018-11-05T16:16:40.385Z,12.30
2018-11-05T16:19:09.553Z,12.30
2018-11-05T16:21:44.273Z,12.50
2018-11-05T16:24:12.732Z,12.50
2018-11-05T16:26:43.392Z,12.50
2018-11-05T16:29:12.447Z,12.70
2018-11-05T16:31:42.344Z,12.60
2018-11-05T16:34:11.713Z,12.50
2018-11-05T16:36:41.525Z,12.30
2018-11-05T16:39:12.359Z,12.50
2018-11-05T16:41:42.440Z,12.40
2018-11-05T16:44:11.209Z,12.20
2018-11-05T16:46:40.852Z,12.40
2018-11-05T16:49:09.248Z,12.30
2018-11-05T16:51:38.092Z,12.30
2018-11-05T16:54:08.269Z,12.50
2018-11-05T16:56:39.153Z,12.30
2018-11-05T16:59:11.173Z,12.40
2018-11-05T17:01:44.089Z,12.60
2018-11-05T17:04:13.953Z,12.70
2018-11-05T17:06:47.266Z,12.80
2018-11-05T17:09:16.551Z,12.80
2018-11-05T17:11:47.394Z,12.90
2018-11-05T17:14:23.758Z,12.90
2018-11-05T17:16:53.685Z,12.90
2018-11-05T17:19:23.385Z,13.00
2018-11-05T17:21:52.937Z,12.40
2018-11-05T17:24:21.219Z,12.50
2018-11-05T17:26:50.883Z,12.50
2018-11-05T17:29:21.294Z,12.60
2018-11-05T17:31:50.390Z,12.30
2018-11-05T17:34:21.467Z,12.30
2018-11-05T17:36:49.739Z,12.50
2018-11-05T17:39:18.510Z,12.60
2018-11-05T17:41:47.896Z,12.60
2018-11-05T17:44:16.990Z,12.80
2018-11-05T17:46:45.455Z,12.70
2018-11-05T17:49:14.984Z,12.70
2018-11-05T17:51:43.366Z,12.80
2018-11-05T17:54:12.308Z,12.80
2018-11-05T17:56:41.758Z,13.00
2018-11-05T17:59:10.135Z,12.90
2018-11-05T18:01:38.517Z,12.90
2018-11-05T18:04:06.983Z,12.90
2018-11-05T18:06:35.065Z,12.80
2018-11-05T18:09:05.883Z,12.90
2018-11-05T18:11:34.684Z,13.00
2018-11-05T18:14:02.753Z,13.10
2018-11-05T18:16:31.812Z,12.60
2018-11-05T18:19:00.342Z,12.70
2018-11-05T18:21:29.146Z,12.70
2018-11-05T18:23:58.412Z,12.60
2018-11-05T18:26:28.743Z,12.80
2018-11-05T18:28:57.489Z,12.30
2018-11-05T18:31:26.049Z,12.30
2018-11-05T18:33:55.017Z,12.30
2018-11-05T18:36:25.809Z,12.30
2018-11-05T18:38:54.244Z,12.40
2018-11-05T18:41:23.908Z,12.50
2018-11-05T18:43:53.438Z,12.40
2018-11-05T18:46:23.529Z,12.20
2018-11-05T18:48:52.303Z,12.20
2018-11-05T18:51:20.940Z,12.30
2018-11-05T18:53:48.972Z,12.50
2018-11-05T18:56:17.155Z,12.10
2018-11-05T18:58:47.405Z,12.20
2018-11-05T19:01:17.050Z,12.50
2018-11-05T19:03:46.661Z,12.70
2018-11-05T19:06:16.041Z,12.60
2018-11-05T19:08:45.030Z,12.60
2018-11-05T19:11:15.013Z,12.80
2018-11-05T19:13:43.933Z,12.70
2018-11-05T19:16:14.554Z,12.90
2018-11-05T19:18:45.600Z,13.10
2018-11-05T19:21:14.067Z,13.00
2018-11-05T19:23:43.344Z,13.10
2018-11-05T19:26:12.399Z,13.10
2018-11-05T19:28:41.317Z,12.90
2018-11-05T19:31:09.859Z,12.80
2018-11-05T19:33:39.814Z,12.80
2018-11-05T19:36:08.337Z,13.00
2018-11-05T19:38:37.440Z,12.70
2018-11-05T19:41:06.538Z,12.40
2018-11-05T19:43:36.317Z,12.20
2018-11-05T19:46:05.731Z,12.20
2018-11-05T19:48:34.739Z,12.20
2018-11-05T19:51:03.892Z,12.40
2018-11-05T19:53:32.485Z,12.50
2018-11-05T19:56:01.158Z,12.50
2018-11-05T19:58:29.990Z,12.60
2018-11-05T20:01:00.478Z,12.90
2018-11-05T20:03:29.303Z,13.00
2018-11-05T20:05:58.668Z,12.80
2018-11-05T20:08:27.740Z,12.70
2018-11-05T20:10:58.251Z,12.50
2018-11-05T20:13:27.982Z,12.60
2018-11-05T20:15:58.090Z,12.50
2018-11-05T20:18:26.472Z,12.40
2018-11-05T20:20:55.341Z,12.30
2018-11-05T20:23:26.081Z,12.20
2018-11-05T20:25:55.392Z,12.40
2018-11-05T20:28:23.646Z,12.20
2018-11-05T20:30:51.951Z,12.50
2018-11-05T20:33:21.352Z,12.20
2018-11-05T20:35:49.101Z,12.20
2018-11-05T20:38:17.543Z,12.40
2018-11-05T20:40:47.144Z,12.70
2018-11-05T20:43:16.129Z,12.90
2018-11-05T20:45:45.365Z,12.60
2018-11-05T20:48:13.761Z,12.70
2018-11-05T20:50:43.977Z,12.90
2018-11-05T20:53:16.073Z,12.70
2018-11-05T20:55:44.319Z,12.90
2018-11-05T20:58:13.256Z,12.90
2018-11-05T21:00:42.021Z,13.00
2018-11-05T21:03:11.206Z,13.00
2018-11-05T21:05:39.653Z,13.00
2018-11-05T21:08:08.575Z,13.20
2018-11-05T21:10:37.350Z,13.30
2018-11-05T21:13:06.666Z,13.20
2018-11-05T21:15:35.453Z,13.30
2018-11-05T21:18:04.237Z,12.90
2018-11-05T21:20:34.870Z,13.00
2018-11-05T21:23:04.455Z,13.10
2018-11-05T21:25:33.670Z,13.20
2018-11-05T21:28:03.003Z,13.20
2018-11-05T21:30:33.454Z,13.30
2018-11-05T21:33:02.024Z,13.30
2018-11-05T21:35:34.962Z,13.30
2018-11-05T21:38:04.175Z,13.30
2018-11-05T21:40:32.998Z,13.30
2018-11-05T21:43:01.555Z,13.20
2018-11-05T21:45:30.323Z,13.20
2018-11-05T21:47:58.264Z,13.20
2018-11-05T21:50:27.417Z,13.30
2018-11-05T21:52:55.565Z,13.40
2018-11-05T21:55:23.665Z,13.50
2018-11-05T21:57:52.200Z,13.40
2018-11-05T22:00:22.411Z,13.40
2018-11-05T22:02:56.461Z,13.50
2018-11-05T22:05:24.414Z,13.50
2018-11-05T22:07:52.928Z,13.40
2018-11-05T22:10:20.816Z,13.50
2018-11-05T22:12:49.146Z,13.10
2018-11-05T22:15:17.513Z,13.10
2018-11-05T22:17:45.413Z,13.30
2018-11-05T22:20:13.357Z,13.20
2018-11-05T22:22:41.830Z,13.30
2018-11-05T22:25:11.269Z,13.30
2018-11-05T22:27:39.572Z,13.30
2018-11-05T22:30:10.063Z,13.50
2018-11-05T22:32:38.132Z,13.50
2018-11-05T22:35:07.281Z,13.40
2018-11-05T22:37:36.028Z,13.50
2018-11-05T22:40:06.432Z,13.40
2018-11-05T22:42:34.446Z,13.50
2018-11-05T22:45:02.429Z,13.40
2018-11-05T22:47:30.408Z,13.10
2018-11-05T22:49:58.939Z,12.90
2018-11-05T22:52:26.843Z,13.10
2018-11-05T22:54:54.688Z,13.00
2018-11-05T22:57:22.937Z,12.70
2018-11-05T22:59:51.403Z,12.80
2018-11-05T23:02:19.238Z,13.00
2018-11-05T23:04:47.138Z,13.10
2018-11-05T23:07:16.305Z,13.10
2018-11-05T23:09:44.209Z,13.20
2018-11-05T23:12:12.171Z,13.00
2018-11-05T23:14:40.295Z,12.90
2018-11-05T23:17:08.426Z,12.90
2018-11-05T23:19:36.277Z,12.90
2018-11-05T23:22:04.154Z,12.90
2018-11-05T23:24:32.040Z,13.00
2018-11-05T23:27:00.728Z,13.10
2018-11-05T23:29:28.636Z,13.20
2018-11-05T23:31:56.515Z,13.20
2018-11-05T23:34:24.539Z,13.30
2018-11-05T23:36:52.693Z,13.30
2018-11-05T23:39:20.691Z,13.30
2018-11-05T23:41:48.947Z,13.30
2018-11-05T23:44:16.855Z,13.20
2018-11-05T23:46:44.700Z,13.10
2018-11-05T23:49:12.670Z,13.20
2018-11-05T23:51:40.621Z,13.20
2018-11-05T23:54:08.424Z,13.30
2018-11-05T23:56:36.310Z,13.00
2018-11-05T23:59:05.500Z,12.90
